Robertsville, Arkansas
Current Conditions -  °F | °C
As of 4:53 PM on Tuesday 27 Jan 2015 (Local Time) from KRUE Reporting Station
Clear Clear  
Wind Chill: 66°   Ceiling: Unl
Heat Index: 66°   Visibility: 10mi
Dew Point: 33°   Wind: 0mph
Humidity: 29%   Direction: NA
Pressure: 30.1"   Gusts: NA
Location:  35.2814°N, 92.791°W
Report Text: KRUE 272253Z AUTO 00000KT 10SM CLR 19/01 A3010 RMK AO2 SLP188 T01890006
Loading
Personal Weather Stations






























Interactive Weather Map New forecast layout! Learn more

10-Day Weather Forecast

Advertisements
Track Severe Weather on mobile